sensor_id;sensor_type;location;lat;lon;timestamp;pressure;altitude;pressure_sealevel;temperature;humidity
55468;BME280;41332;42.702;23.200;2023-06-26T00:01:41;93795.38;;;18.45;91.92
55468;BME280;41332;42.702;23.200;2023-06-26T00:04:07;93796.50;;;18.48;91.78
55468;BME280;41332;42.702;23.200;2023-06-26T00:06:33;93799.94;;;18.55;91.91
55468;BME280;41332;42.702;23.200;2023-06-26T00:08:58;93798.41;;;18.51;91.74
55468;BME280;41332;42.702;23.200;2023-06-26T00:11:24;93805.25;;;18.52;91.90
55468;BME280;41332;42.702;23.200;2023-06-26T00:13:50;93796.13;;;18.49;91.66
55468;BME280;41332;42.702;23.200;2023-06-26T00:16:15;93803.34;;;18.56;91.66
55468;BME280;41332;42.702;23.200;2023-06-26T00:18:40;93801.81;;;18.44;92.46
55468;BME280;41332;42.702;23.200;2023-06-26T00:21:06;93800.69;;;18.45;91.71
55468;BME280;41332;42.702;23.200;2023-06-26T00:23:31;93805.25;;;18.44;91.79
55468;BME280;41332;42.702;23.200;2023-06-26T00:25:58;93797.66;;;18.39;91.36
55468;BME280;41332;42.702;23.200;2023-06-26T00:28:23;93802.97;;;18.47;91.59
55468;BME280;41332;42.702;23.200;2023-06-26T00:30:48;93798.75;;;18.35;92.48
55468;BME280;41332;42.702;23.200;2023-06-26T00:33:14;93793.47;;;18.38;91.99
55468;BME280;41332;42.702;23.200;2023-06-26T00:35:40;93792.72;;;18.38;91.83
55468;BME280;41332;42.702;23.200;2023-06-26T00:38:06;93791.56;;;18.39;92.08
55468;BME280;41332;42.702;23.200;2023-06-26T00:40:31;93798.81;;;18.45;91.88
55468;BME280;41332;42.702;23.200;2023-06-26T00:42:56;93791.56;;;18.39;91.87
55468;BME280;41332;42.702;23.200;2023-06-26T00:45:22;93793.81;;;18.29;92.73
55468;BME280;41332;42.702;23.200;2023-06-26T00:47:48;93792.31;;;18.39;92.07
55468;BME280;41332;42.702;23.200;2023-06-26T00:50:13;93796.09;;;18.35;92.09
55468;BME280;41332;42.702;23.200;2023-06-26T00:52:41;93786.59;;;18.34;92.25
55468;BME280;41332;42.702;23.200;2023-06-26T00:55:07;93784.31;;;18.28;92.81
55468;BME280;41332;42.702;23.200;2023-06-26T00:57:32;93775.59;;;18.32;92.56
55468;BME280;41332;42.702;23.200;2023-06-26T00:59:59;93777.50;;;18.35;92.20
55468;BME280;41332;42.702;23.200;2023-06-26T01:02:25;93774.47;;;18.33;92.12
55468;BME280;41332;42.702;23.200;2023-06-26T01:04:56;93771.38;;;18.23;92.59
55468;BME280;41332;42.702;23.200;2023-06-26T01:07:22;93771.41;;;18.20;91.96
55468;BME280;41332;42.702;23.200;2023-06-26T01:09:48;93760.75;;;18.16;92.36
55468;BME280;41332;42.702;23.200;2023-06-26T01:12:14;93763.00;;;18.10;92.52
55468;BME280;41332;42.702;23.200;2023-06-26T01:14:40;93759.63;;;18.17;92.43
55468;BME280;41332;42.702;23.200;2023-06-26T01:17:06;93755.41;;;18.05;92.67
55468;BME280;41332;42.702;23.200;2023-06-26T01:19:33;93751.25;;;18.15;92.07
55468;BME280;41332;42.702;23.200;2023-06-26T01:25:23;93746.63;;;17.98;92.24
55468;BME280;41332;42.702;23.200;2023-06-26T01:27:58;93755.38;;;17.94;92.25
55468;BME280;41332;42.702;23.200;2023-06-26T01:30:25;93741.28;;;17.90;92.22
55468;BME280;41332;42.702;23.200;2023-06-26T01:32:50;93734.78;;;17.80;92.92
55468;BME280;41332;42.702;23.200;2023-06-26T01:35:17;93744.31;;;17.92;91.96
55468;BME280;41332;42.702;23.200;2023-06-26T01:37:42;93734.44;;;17.82;92.00
55468;BME280;41332;42.702;23.200;2023-06-26T01:40:08;93743.53;;;17.81;92.26
55468;BME280;41332;42.702;23.200;2023-06-26T01:42:35;93744.28;;;17.82;92.14
55468;BME280;41332;42.702;23.200;2023-06-26T01:45:09;93742.00;;;17.80;92.05
55468;BME280;41332;42.702;23.200;2023-06-26T01:47:37;93754.94;;;17.85;91.77
55468;BME280;41332;42.702;23.200;2023-06-26T01:50:12;93738.97;;;17.82;91.22
55468;BME280;41332;42.702;23.200;2023-06-26T01:52:55;93740.84;;;17.74;91.85
55468;BME280;41332;42.702;23.200;2023-06-26T01:55:32;93738.22;;;17.81;91.50
55468;BME280;41332;42.702;23.200;2023-06-26T01:58:01;93741.63;;;17.78;91.50
55468;BME280;41332;42.702;23.200;2023-06-26T02:00:27;93748.47;;;17.83;91.28
55468;BME280;41332;42.702;23.200;2023-06-26T02:02:53;93739.00;;;17.85;91.35
55468;BME280;41332;42.702;23.200;2023-06-26T02:05:19;93733.66;;;17.82;91.52
55468;BME280;41332;42.702;23.200;2023-06-26T02:07:44;93732.91;;;17.77;91.54
55468;BME280;41332;42.702;23.200;2023-06-26T02:10:10;93730.97;;;17.67;92.00
55468;BME280;41332;42.702;23.200;2023-06-26T02:12:36;93740.81;;;17.70;92.13
55468;BME280;41332;42.702;23.200;2023-06-26T02:15:02;93734.00;;;17.73;91.63
55468;BME280;41332;42.702;23.200;2023-06-26T02:17:28;93732.50;;;17.75;91.47
55468;BME280;41332;42.702;23.200;2023-06-26T02:19:53;93720.31;;;17.63;91.49
55468;BME280;41332;42.702;23.200;2023-06-26T02:22:18;93725.63;;;17.56;91.76
55468;BME280;41332;42.702;23.200;2023-06-26T02:24:44;93723.69;;;17.53;92.15
55468;BME280;41332;42.702;23.200;2023-06-26T02:27:10;93724.03;;;17.41;92.72
55468;BME280;41332;42.702;23.200;2023-06-26T02:29:35;93724.41;;;17.43;93.35
55468;BME280;41332;42.702;23.200;2023-06-26T02:32:01;93730.78;;;17.31;93.54
55468;BME280;41332;42.702;23.200;2023-06-26T02:34:26;93725.84;;;17.26;93.50
55468;BME280;41332;42.702;23.200;2023-06-26T02:36:52;93725.09;;;17.33;94.08
55468;BME280;41332;42.702;23.200;2023-06-26T02:39:20;93728.09;;;17.24;94.02
55468;BME280;41332;42.702;23.200;2023-06-26T02:41:46;93719.41;;;17.27;93.30
55468;BME280;41332;42.702;23.200;2023-06-26T02:44:12;93727.75;;;17.33;93.71
55468;BME280;41332;42.702;23.200;2023-06-26T02:46:38;93734.16;;;17.21;94.01
55468;BME280;41332;42.702;23.200;2023-06-26T02:49:03;93729.97;;;17.20;94.14
55468;BME280;41332;42.702;23.200;2023-06-26T02:51:29;93728.44;;;17.19;93.96
55468;BME280;41332;42.702;23.200;2023-06-26T02:53:55;93730.00;;;17.23;94.12
55468;BME280;41332;42.702;23.200;2023-06-26T02:56:20;93737.97;;;17.23;94.53
55468;BME280;41332;42.702;23.200;2023-06-26T02:58:45;93739.84;;;17.23;94.17
55468;BME280;41332;42.702;23.200;2023-06-26T03:01:11;93729.22;;;17.19;94.45
55468;BME280;41332;42.702;23.200;2023-06-26T03:03:36;93735.22;;;17.09;95.01
55468;BME280;41332;42.702;23.200;2023-06-26T03:06:08;93738.31;;;17.18;94.80
55468;BME280;41332;42.702;23.200;2023-06-26T03:08:36;93734.50;;;17.16;95.04
55468;BME280;41332;42.702;23.200;2023-06-26T03:11:02;93742.84;;;17.14;95.31
55468;BME280;41332;42.702;23.200;2023-06-26T03:13:27;93741.72;;;17.15;94.61
55468;BME280;41332;42.702;23.200;2023-06-26T03:15:53;93733.75;;;17.15;94.96
55468;BME280;41332;42.702;23.200;2023-06-26T03:18:18;93750.38;;;17.12;94.40
55468;BME280;41332;42.702;23.200;2023-06-26T03:20:43;93743.22;;;17.12;94.89
55468;BME280;41332;42.702;23.200;2023-06-26T03:23:09;93745.84;;;17.09;95.32
55468;BME280;41332;42.702;23.200;2023-06-26T03:25:34;93751.88;;;17.09;95.48
55468;BME280;41332;42.702;23.200;2023-06-26T03:28:00;93750.78;;;17.14;95.10
55468;BME280;41332;42.702;23.200;2023-06-26T03:30:25;93750.03;;;17.17;95.34
55468;BME280;41332;42.702;23.200;2023-06-26T03:32:50;93754.63;;;17.20;95.03
55468;BME280;41332;42.702;23.200;2023-06-26T03:35:16;93749.31;;;17.24;94.84
55468;BME280;41332;42.702;23.200;2023-06-26T03:37:41;93747.81;;;17.26;95.13
55468;BME280;41332;42.702;23.200;2023-06-26T04:05:28;93727.50;;;17.56;94.07
55468;BME280;41332;42.702;23.200;2023-06-26T04:07:54;93741.19;;;17.69;93.83
55468;BME280;41332;42.702;23.200;2023-06-26T04:10:19;93743.50;;;17.74;93.95
55468;BME280;41332;42.702;23.200;2023-06-26T04:12:59;93748.06;;;17.80;93.40
55468;BME280;41332;42.702;23.200;2023-06-26T04:15:24;93745.81;;;17.79;93.41
55468;BME280;41332;42.702;23.200;2023-06-26T04:17:50;93750.38;;;17.82;93.20
55468;BME280;41332;42.702;23.200;2023-06-26T04:20:15;93746.97;;;17.92;92.31
55468;BME280;41332;42.702;23.200;2023-06-26T04:22:41;93748.16;;;17.99;92.22
55468;BME280;41332;42.702;23.200;2023-06-26T04:25:06;93744.75;;;17.94;92.27
55468;BME280;41332;42.702;23.200;2023-06-26T04:27:32;93752.34;;;18.00;91.76
55468;BME280;41332;42.702;23.200;2023-06-26T04:29:57;93750.88;;;18.09;91.86
55468;BME280;41332;42.702;23.200;2023-06-26T04:32:22;93758.88;;;18.24;91.55
55468;BME280;41332;42.702;23.200;2023-06-26T04:34:49;93757.78;;;18.43;90.07
55468;BME280;41332;42.702;23.200;2023-06-26T04:37:14;93757.41;;;18.55;89.63
55468;BME280;41332;42.702;23.200;2023-06-26T04:39:42;93757.41;;;18.77;89.29
55468;BME280;41332;42.702;23.200;2023-06-26T04:42:07;93761.22;;;18.83;87.78
55468;BME280;41332;42.702;23.200;2023-06-26T04:44:33;93762.38;;;18.97;87.87
55468;BME280;41332;42.702;23.200;2023-06-26T04:46:58;93757.03;;;19.15;87.16
55468;BME280;41332;42.702;23.200;2023-06-26T04:49:24;93764.25;;;19.25;86.06
55468;BME280;41332;42.702;23.200;2023-06-26T04:51:49;93767.25;;;19.41;84.87
55468;BME280;41332;42.702;23.200;2023-06-26T04:54:16;93772.16;;;19.50;84.05
55468;BME280;41332;42.702;23.200;2023-06-26T04:56:42;93763.03;;;19.51;83.44
55468;BME280;41332;42.702;23.200;2023-06-26T04:59:08;93760.75;;;19.53;82.83
55468;BME280;41332;42.702;23.200;2023-06-26T05:01:38;93758.84;;;19.57;82.42
55468;BME280;41332;42.702;23.200;2023-06-26T05:04:04;93764.91;;;19.65;83.25
55468;BME280;41332;42.702;23.200;2023-06-26T05:06:30;93761.84;;;19.67;82.36
55468;BME280;41332;42.702;23.200;2023-06-26T05:08:55;93772.16;;;19.65;82.37
55468;BME280;41332;42.702;23.200;2023-06-26T05:11:21;93771.72;;;19.77;82.81
55468;BME280;41332;42.702;23.200;2023-06-26T05:13:46;93770.94;;;19.91;82.20
55468;BME280;41332;42.702;23.200;2023-06-26T05:16:12;93774.00;;;19.82;81.77
55468;BME280;41332;42.702;23.200;2023-06-26T05:18:37;93779.31;;;19.89;81.63
55468;BME280;41332;42.702;23.200;2023-06-26T05:21:03;93775.06;;;20.03;81.46
55468;BME280;41332;42.702;23.200;2023-06-26T05:23:31;93777.31;;;20.15;81.58
55468;BME280;41332;42.702;23.200;2023-06-26T05:25:57;93768.53;;;20.18;82.67
55468;BME280;41332;42.702;23.200;2023-06-26T05:28:26;93779.13;;;20.33;82.07
55468;BME280;41332;42.702;23.200;2023-06-26T05:30:53;93771.44;;;20.42;79.43
55468;BME280;41332;42.702;23.200;2023-06-26T05:33:21;93786.56;;;20.59;78.42
55468;BME280;41332;42.702;23.200;2023-06-26T05:35:48;93786.97;;;20.58;77.35
55468;BME280;41332;42.702;23.200;2023-06-26T05:38:14;93784.63;;;20.64;77.37
55468;BME280;41332;42.702;23.200;2023-06-26T05:40:40;93791.94;;;20.56;78.62
55468;BME280;41332;42.702;23.200;2023-06-26T05:43:06;93788.03;;;20.68;77.83
55468;BME280;41332;42.702;23.200;2023-06-26T05:45:32;93787.66;;;20.73;78.07
55468;BME280;41332;42.702;23.200;2023-06-26T05:47:57;93789.09;;;20.85;77.65
55468;BME280;41332;42.702;23.200;2023-06-26T05:50:23;93785.66;;;20.88;76.29
55468;BME280;41332;42.702;23.200;2023-06-26T05:52:48;93787.88;;;20.97;76.14
55468;BME280;41332;42.702;23.200;2023-06-26T05:55:14;93793.38;;;21.20;74.97
55468;BME280;41332;42.702;23.200;2023-06-26T05:57:40;93789.84;;;21.34;73.08
55468;BME280;41332;42.702;23.200;2023-06-26T06:00:06;93796.63;;;21.43;73.83
55468;BME280;41332;42.702;23.200;2023-06-26T06:02:36;93786.22;;;21.52;72.94
55468;BME280;41332;42.702;23.200;2023-06-26T06:05:01;93792.72;;;21.51;73.31
55468;BME280;41332;42.702;23.200;2023-06-26T06:07:27;93798.75;;;21.62;71.65
55468;BME280;41332;42.702;23.200;2023-06-26T06:09:52;93793.41;;;21.62;71.85
55468;BME280;41332;42.702;23.200;2023-06-26T06:12:18;93798.41;;;21.60;71.22
55468;BME280;41332;42.702;23.200;2023-06-26T06:14:43;93796.06;;;21.62;71.21
55468;BME280;41332;42.702;23.200;2023-06-26T06:17:08;93801.84;;;21.57;72.03
55468;BME280;41332;42.702;23.200;2023-06-26T06:19:34;93800.63;;;21.65;72.49
55468;BME280;41332;42.702;23.200;2023-06-26T06:21:59;93797.19;;;21.65;72.66
55468;BME280;41332;42.702;23.200;2023-06-26T06:24:24;93796.19;;;21.86;72.64
55468;BME280;41332;42.702;23.200;2023-06-26T06:26:50;93788.59;;;22.15;73.27
55468;BME280;41332;42.702;23.200;2023-06-26T06:29:15;93791.09;;;22.30;70.69
55468;BME280;41332;42.702;23.200;2023-06-26T06:31:41;93782.16;;;22.44;68.44
55468;BME280;41332;42.702;23.200;2023-06-26T06:34:06;93780.94;;;22.48;68.24
55468;BME280;41332;42.702;23.200;2023-06-26T06:36:31;93781.47;;;22.36;68.58
55468;BME280;41332;42.702;23.200;2023-06-26T06:38:57;93779.50;;;22.40;68.54
55468;BME280;41332;42.702;23.200;2023-06-26T06:41:22;93781.91;;;22.31;69.39
55468;BME280;41332;42.702;23.200;2023-06-26T06:43:47;93788.78;;;22.32;68.01
55468;BME280;41332;42.702;23.200;2023-06-26T06:46:13;93777.94;;;22.43;68.91
55468;BME280;41332;42.702;23.200;2023-06-26T06:48:38;93780.31;;;22.37;71.06
55468;BME280;41332;42.702;23.200;2023-06-26T06:51:04;93790.28;;;22.36;69.95
55468;BME280;41332;42.702;23.200;2023-06-26T06:53:29;93789.00;;;22.45;71.01
55468;BME280;41332;42.702;23.200;2023-06-26T06:55:55;93786.47;;;22.34;69.51
55468;BME280;41332;42.702;23.200;2023-06-26T06:58:21;93784.81;;;22.44;69.75
55468;BME280;41332;42.702;23.200;2023-06-26T07:00:48;93785.94;;;22.46;67.74
55468;BME280;41332;42.702;23.200;2023-06-26T07:03:13;93775.63;;;22.45;67.73
55468;BME280;41332;42.702;23.200;2023-06-26T07:05:41;93782.97;;;22.68;68.42
55468;BME280;41332;42.702;23.200;2023-06-26T07:08:06;93781.16;;;22.85;69.05
55468;BME280;41332;42.702;23.200;2023-06-26T07:10:31;93777.03;;;22.80;63.91
55468;BME280;41332;42.702;23.200;2023-06-26T07:12:57;93779.38;;;22.78;63.85
55468;BME280;41332;42.702;23.200;2023-06-26T07:15:22;93786.88;;;22.87;66.36
55468;BME280;41332;42.702;23.200;2023-06-26T07:17:47;93774.38;;;23.04;66.17
55468;BME280;41332;42.702;23.200;2023-06-26T07:20:13;93778.75;;;23.18;65.43
55468;BME280;41332;42.702;23.200;2023-06-26T07:22:41;93776.94;;;23.35;63.95
55468;BME280;41332;42.702;23.200;2023-06-26T07:25:07;93775.88;;;23.52;62.62
55468;BME280;41332;42.702;23.200;2023-06-26T07:27:40;93777.47;;;23.70;64.08
55468;BME280;41332;42.702;23.200;2023-06-26T07:30:07;93765.22;;;23.89;62.04
55468;BME280;41332;42.702;23.200;2023-06-26T07:32:36;93771.94;;;24.01;60.78
55468;BME280;41332;42.702;23.200;2023-06-26T07:35:01;93770.88;;;24.15;61.08
55468;BME280;41332;42.702;23.200;2023-06-26T07:37:27;93779.06;;;24.08;58.90
55468;BME280;41332;42.702;23.200;2023-06-26T07:39:52;93777.13;;;24.08;61.70
55468;BME280;41332;42.702;23.200;2023-06-26T07:42:17;93768.94;;;24.15;59.33
55468;BME280;41332;42.702;23.200;2023-06-26T07:44:43;93778.84;;;24.18;59.04
55468;BME280;41332;42.702;23.200;2023-06-26T07:47:09;93778.72;;;24.26;59.32
55468;BME280;41332;42.702;23.200;2023-06-26T07:49:34;93781.72;;;24.28;59.45
55468;BME280;41332;42.702;23.200;2023-06-26T07:52:00;93781.00;;;24.60;58.17
55468;BME280;41332;42.702;23.200;2023-06-26T07:54:25;93783.50;;;24.71;57.70
55468;BME280;41332;42.702;23.200;2023-06-26T07:56:58;93785.63;;;24.60;56.66
55468;BME280;41332;42.702;23.200;2023-06-26T07:59:26;93787.00;;;24.68;55.35
55468;BME280;41332;42.702;23.200;2023-06-26T08:01:54;93788.69;;;24.62;57.57
55468;BME280;41332;42.702;23.200;2023-06-26T08:04:21;93787.13;;;24.64;57.89
55468;BME280;41332;42.702;23.200;2023-06-26T08:06:51;93780.81;;;24.71;58.12
55468;BME280;41332;42.702;23.200;2023-06-26T08:09:18;93775.97;;;24.82;57.72
55468;BME280;41332;42.702;23.200;2023-06-26T08:11:44;93776.63;;;24.87;58.15
55468;BME280;41332;42.702;23.200;2023-06-26T08:14:10;93781.16;;;24.90;55.40
55468;BME280;41332;42.702;23.200;2023-06-26T08:16:37;93779.31;;;24.87;56.10
55468;BME280;41332;42.702;23.200;2023-06-26T08:19:05;93774.13;;;24.96;53.86
55468;BME280;41332;42.702;23.200;2023-06-26T08:21:31;93776.38;;;24.97;54.15
55468;BME280;41332;42.702;23.200;2023-06-26T08:23:56;93771.16;;;25.07;54.32
55468;BME280;41332;42.702;23.200;2023-06-26T08:26:22;93775.63;;;24.97;55.13
55468;BME280;41332;42.702;23.200;2023-06-26T08:28:47;93768.91;;;25.05;56.75
55468;BME280;41332;42.702;23.200;2023-06-26T08:31:12;93773.66;;;25.30;55.57
55468;BME280;41332;42.702;23.200;2023-06-26T08:33:38;93774.00;;;25.49;54.45
55468;BME280;41332;42.702;23.200;2023-06-26T08:36:03;93772.78;;;25.66;53.91
55468;BME280;41332;42.702;23.200;2023-06-26T08:38:29;93780.47;;;25.81;52.27
55468;BME280;41332;42.702;23.200;2023-06-26T08:40:54;93779.69;;;25.80;51.60
55468;BME280;41332;42.702;23.200;2023-06-26T08:43:20;93787.06;;;25.93;51.27
55468;BME280;41332;42.702;23.200;2023-06-26T08:45:47;93786.50;;;25.85;50.92
55468;BME280;41332;42.702;23.200;2023-06-26T08:48:16;93790.00;;;25.82;52.36
55468;BME280;41332;42.702;23.200;2023-06-26T08:50:43;93785.78;;;25.68;50.90
55468;BME280;41332;42.702;23.200;2023-06-26T08:53:14;93784.41;;;25.47;52.45
55468;BME280;41332;42.702;23.200;2023-06-26T08:55:46;93773.41;;;25.25;52.50
55468;BME280;41332;42.702;23.200;2023-06-26T08:58:14;93782.97;;;25.26;53.00
55468;BME280;41332;42.702;23.200;2023-06-26T09:00:40;93773.09;;;25.23;54.17
55468;BME280;41332;42.702;23.200;2023-06-26T09:03:06;93778.44;;;25.39;53.10
55468;BME280;41332;42.702;23.200;2023-06-26T09:05:32;93783.13;;;25.52;54.24
55468;BME280;41332;42.702;23.200;2023-06-26T09:07:58;93776.88;;;25.71;51.84
55468;BME280;41332;42.702;23.200;2023-06-26T09:10:23;93773.56;;;25.80;50.50
55468;BME280;41332;42.702;23.200;2023-06-26T09:12:50;93777.72;;;25.68;50.72
55468;BME280;41332;42.702;23.200;2023-06-26T09:15:16;93773.75;;;25.73;51.85
55468;BME280;41332;42.702;23.200;2023-06-26T09:17:44;93783.19;;;25.64;51.19
55468;BME280;41332;42.702;23.200;2023-06-26T09:20:09;93779.03;;;25.47;51.11
55468;BME280;41332;42.702;23.200;2023-06-26T09:22:41;93777.53;;;25.29;50.78
55468;BME280;41332;42.702;23.200;2023-06-26T09:25:07;93779.66;;;25.38;51.38
55468;BME280;41332;42.702;23.200;2023-06-26T09:27:34;93770.75;;;25.08;50.10
55468;BME280;41332;42.702;23.200;2023-06-26T09:30:02;93778.03;;;25.24;50.41
55468;BME280;41332;42.702;23.200;2023-06-26T09:32:28;93775.59;;;25.46;51.98
55468;BME280;41332;42.702;23.200;2023-06-26T09:34:53;93769.25;;;25.53;49.59
55468;BME280;41332;42.702;23.200;2023-06-26T09:37:22;93765.84;;;25.53;50.03
55468;BME280;41332;42.702;23.200;2023-06-26T09:39:48;93776.28;;;25.63;48.82
55468;BME280;41332;42.702;23.200;2023-06-26T09:42:14;93771.41;;;25.75;48.55
55468;BME280;41332;42.702;23.200;2023-06-26T09:44:44;93765.25;;;25.45;47.80
55468;BME280;41332;42.702;23.200;2023-06-26T09:47:10;93776.91;;;25.55;47.04
55468;BME280;41332;42.702;23.200;2023-06-26T09:49:36;93767.53;;;25.46;50.38
55468;BME280;41332;42.702;23.200;2023-06-26T09:52:02;93767.72;;;25.69;49.88
55468;BME280;41332;42.702;23.200;2023-06-26T09:54:28;93767.22;;;25.87;50.15
55468;BME280;41332;42.702;23.200;2023-06-26T09:56:56;93776.47;;;26.15;48.83
55468;BME280;41332;42.702;23.200;2023-06-26T09:59:32;93771.63;;;26.23;51.16
55468;BME280;41332;42.702;23.200;2023-06-26T10:01:59;93769.69;;;26.36;51.14
55468;BME280;41332;42.702;23.200;2023-06-26T10:04:25;93770.91;;;26.35;49.46
55468;BME280;41332;42.702;23.200;2023-06-26T10:06:51;93766.28;;;26.36;46.61
55468;BME280;41332;42.702;23.200;2023-06-26T10:09:17;93765.31;;;26.55;46.88
55468;BME280;41332;42.702;23.200;2023-06-26T10:12:02;93770.16;;;26.60;47.09
55468;BME280;41332;42.702;23.200;2023-06-26T10:14:34;93769.16;;;26.67;47.82
55468;BME280;41332;42.702;23.200;2023-06-26T10:17:00;93756.59;;;26.51;47.92
55468;BME280;41332;42.702;23.200;2023-06-26T10:19:27;93757.66;;;26.54;50.07
55468;BME280;41332;42.702;23.200;2023-06-26T10:21:53;93755.06;;;26.63;49.19
55468;BME280;41332;42.702;23.200;2023-06-26T10:24:19;93764.75;;;26.60;46.03
55468;BME280;41332;42.702;23.200;2023-06-26T10:26:50;93762.81;;;26.48;45.00
55468;BME280;41332;42.702;23.200;2023-06-26T10:29:19;93760.44;;;26.37;50.28
55468;BME280;41332;42.702;23.200;2023-06-26T10:31:52;93762.72;;;26.64;45.15
55468;BME280;41332;42.702;23.200;2023-06-26T10:34:19;93761.09;;;26.67;46.57
55468;BME280;41332;42.702;23.200;2023-06-26T10:36:45;93766.50;;;26.80;45.22
55468;BME280;41332;42.702;23.200;2023-06-26T10:39:12;93754.72;;;27.00;47.05
55468;BME280;41332;42.702;23.200;2023-06-26T10:41:39;93748.94;;;26.88;45.73
55468;BME280;41332;42.702;23.200;2023-06-26T10:44:11;93756.59;;;26.77;45.83
55468;BME280;41332;42.702;23.200;2023-06-26T10:46:54;93759.72;;;26.49;43.60
55468;BME280;41332;42.702;23.200;2023-06-26T10:49:25;93756.22;;;26.10;46.94
55468;BME280;41332;42.702;23.200;2023-06-26T10:51:51;93749.78;;;26.21;47.59
55468;BME280;41332;42.702;23.200;2023-06-26T10:54:18;93753.34;;;26.18;45.17
55468;BME280;41332;42.702;23.200;2023-06-26T10:56:49;93752.88;;;26.06;45.60
55468;BME280;41332;42.702;23.200;2023-06-26T10:59:21;93750.19;;;25.77;47.34
55468;BME280;41332;42.702;23.200;2023-06-26T11:02:04;93747.59;;;25.60;46.40
55468;BME280;41332;42.702;23.200;2023-06-26T11:07:20;93737.88;;;25.33;49.72
55468;BME280;41332;42.702;23.200;2023-06-26T11:09:55;93755.47;;;25.05;50.27
55468;BME280;41332;42.702;23.200;2023-06-26T11:12:44;93751.53;;;25.10;47.92
55468;BME280;41332;42.702;23.200;2023-06-26T11:15:10;93749.94;;;24.96;48.51
55468;BME280;41332;42.702;23.200;2023-06-26T11:17:36;93743.53;;;24.57;48.39
55468;BME280;41332;42.702;23.200;2023-06-26T11:20:04;93746.94;;;24.77;49.27
55468;BME280;41332;42.702;23.200;2023-06-26T11:22:31;93739.28;;;24.76;48.48
55468;BME280;41332;42.702;23.200;2023-06-26T11:24:59;93743.06;;;24.78;48.75
55468;BME280;41332;42.702;23.200;2023-06-26T11:27:31;93732.97;;;24.99;49.75
55468;BME280;41332;42.702;23.200;2023-06-26T11:29:56;93740.34;;;25.28;49.10
55468;BME280;41332;42.702;23.200;2023-06-26T11:32:22;93747.06;;;25.36;46.97
55468;BME280;41332;42.702;23.200;2023-06-26T11:34:47;93743.28;;;25.63;47.78
55468;BME280;41332;42.702;23.200;2023-06-26T11:37:16;93746.25;;;25.81;48.64
55468;BME280;41332;42.702;23.200;2023-06-26T11:39:42;93737.75;;;25.83;47.75
55468;BME280;41332;42.702;23.200;2023-06-26T11:42:07;93745.97;;;26.05;48.67
55468;BME280;41332;42.702;23.200;2023-06-26T11:44:39;93741.91;;;26.13;48.75
55468;BME280;41332;42.702;23.200;2023-06-26T11:47:06;93749.13;;;26.16;46.83
55468;BME280;41332;42.702;23.200;2023-06-26T11:49:31;93740.31;;;26.29;46.72
55468;BME280;41332;42.702;23.200;2023-06-26T11:51:57;93743.56;;;26.49;45.08
55468;BME280;41332;42.702;23.200;2023-06-26T11:54:26;93736.88;;;26.41;45.35
55468;BME280;41332;42.702;23.200;2023-06-26T11:56:56;93736.94;;;25.99;49.54
55468;BME280;41332;42.702;23.200;2023-06-26T11:59:22;93743.19;;;26.09;48.40
55468;BME280;41332;42.702;23.200;2023-06-26T12:01:49;93746.66;;;26.09;43.86
55468;BME280;41332;42.702;23.200;2023-06-26T12:04:17;93746.53;;;26.26;44.82
55468;BME280;41332;42.702;23.200;2023-06-26T12:06:49;93740.00;;;26.27;44.28
55468;BME280;41332;42.702;23.200;2023-06-26T12:09:18;93737.63;;;26.16;44.16
55468;BME280;41332;42.702;23.200;2023-06-26T12:11:45;93741.63;;;25.95;44.79
55468;BME280;41332;42.702;23.200;2023-06-26T12:14:14;93746.28;;;25.94;47.02
55468;BME280;41332;42.702;23.200;2023-06-26T12:16:40;93732.19;;;26.03;46.12
55468;BME280;41332;42.702;23.200;2023-06-26T12:19:07;93739.19;;;26.00;45.13
55468;BME280;41332;42.702;23.200;2023-06-26T12:24:02;93748.06;;;25.84;45.40
55468;BME280;41332;42.702;23.200;2023-06-26T12:26:27;93738.03;;;25.72;46.08
55468;BME280;41332;42.702;23.200;2023-06-26T12:29:06;93737.94;;;25.76;45.31
55468;BME280;41332;42.702;23.200;2023-06-26T12:31:32;93739.78;;;25.79;47.54
55468;BME280;41332;42.702;23.200;2023-06-26T12:33:58;93740.38;;;25.70;47.94
55468;BME280;41332;42.702;23.200;2023-06-26T12:36:24;93741.16;;;25.71;48.71
55468;BME280;41332;42.702;23.200;2023-06-26T12:38:49;93738.75;;;25.60;50.95
55468;BME280;41332;42.702;23.200;2023-06-26T12:41:15;93738.66;;;25.63;51.60
55468;BME280;41332;42.702;23.200;2023-06-26T12:43:42;93731.97;;;25.55;47.61
55468;BME280;41332;42.702;23.200;2023-06-26T12:46:07;93738.00;;;25.59;49.33
55468;BME280;41332;42.702;23.200;2023-06-26T12:48:42;93737.25;;;25.59;49.47
55468;BME280;41332;42.702;23.200;2023-06-26T12:51:16;93736.88;;;25.73;46.58
55468;BME280;41332;42.702;23.200;2023-06-26T12:53:42;93731.09;;;25.88;47.52
55468;BME280;41332;42.702;23.200;2023-06-26T12:56:10;93728.50;;;25.97;48.08
55468;BME280;41332;42.702;23.200;2023-06-26T12:58:37;93730.78;;;25.98;48.66
55468;BME280;41332;42.702;23.200;2023-06-26T13:01:03;93721.97;;;25.98;48.36
55468;BME280;41332;42.702;23.200;2023-06-26T13:03:28;93729.34;;;25.81;50.88
55468;BME280;41332;42.702;23.200;2023-06-26T13:05:54;93726.97;;;25.83;48.17
55468;BME280;41332;42.702;23.200;2023-06-26T13:08:19;93728.16;;;25.69;49.47
55468;BME280;41332;42.702;23.200;2023-06-26T13:10:44;93728.38;;;25.75;49.02
55468;BME280;41332;42.702;23.200;2023-06-26T13:13:11;93726.69;;;25.52;46.81
55468;BME280;41332;42.702;23.200;2023-06-26T13:15:37;93723.69;;;25.62;47.38
55468;BME280;41332;42.702;23.200;2023-06-26T13:18:02;93730.19;;;25.78;49.17
55468;BME280;41332;42.702;23.200;2023-06-26T13:20:28;93728.72;;;25.90;46.01
55468;BME280;41332;42.702;23.200;2023-06-26T13:22:54;93731.53;;;25.99;44.94